Latest Weather Observations for Falls Creek

IDV60801

Issued at 3:35 am EST Thursday 24 April 2014 (issued every 30 minutes, with the page automatically refreshed every 10 minutes)

About weather observations | Map of weather stations | Latest weather observations for VIC | Other Formats
Station Details ID: 083084 Name: FALLS CREEK Lat: -36.87 Lon: 147.28 Height: 1765.0 m
Data from the previous 72 hours. | See also: Recent months at Falls Creek
Date/Time
EST
Temp
°C
App
Temp
°C
Dew
Point
Rel
Hum
%
Delta-T
°C
Wind Press
QNH
hPa
Press
MSL
hPa
Rain
since 9 am
mm
Dir
 
Spd
km/h
Gust
km/h
Spd
kts
Gust
kts
24/03:30am 3.1 -4.1 3.1 100 0.0 NNW 30 37 16 20 1013.6 - 0.0
24/03:00am 3.1 -3.7 3.1 100 0.0 NNW 28 35 15 19 1013.9 1010.8 0.0
24/02:30am 3.0 -3.8 3.0 100 0.0 NNW 28 35 15 19 1014.4 - 0.0
24/02:00am 3.4 -3.0 3.4 100 0.0 NNW 26 35 14 19 1014.8 - 0.0
24/01:30am 3.6 -3.1 3.6 100 0.0 NNW 28 33 15 18 1015.1 - 0.0
24/01:00am 3.8 -2.1 3.8 100 0.0 NNW 24 35 13 19 1015.5 - 0.0
24/12:30am 3.9 -2.8 3.9 100 0.0 NNW 28 35 15 19 1015.7 - 0.0
24/12:00am 4.3 -1.5 4.3 100 0.0 NNW 24 33 13 18 1016.1 1013.0 0.0
 
Date/Time
EST
Temp
°C
App
Temp
°C
Dew
Point
Rel
Hum
%
Delta-T
°C
Wind Press
QNH
hPa
Press
MSL
hPa
Rain
since 9 am
mm
Dir
 
Spd
km/h
Gust
km/h
Spd
kts
Gust
kts
23/11:30pm 4.1 -2.9 4.1 100 0.0 NNW 30 39 16 21 1016.3 - 0.0
23/11:00pm 4.2 -2.0 4.2 100 0.0 NNW 26 37 14 20 1016.4 - 0.0
23/10:30pm 4.8 -1.7 4.8 100 0.0 NNW 28 41 15 22 1016.5 - 0.0
23/10:00pm 4.6 -2.3 4.6 100 0.0 NNW 30 44 16 24 1016.8 - 0.0
23/09:54pm 4.7 -2.2 4.7 100 0.0 NNW 30 48 16 26 1016.7 - 0.0
23/09:30pm 4.9 -2.5 4.9 100 0.0 NNW 33 46 18 25 1016.7 - 0.0
23/09:05pm 5.0 -2.2 5.0 100 0.0 NNW 32 50 17 27 1016.7 - 0.0
23/09:00pm 5.3 -1.5 5.3 100 0.0 NNW 30 44 16 24 1016.8 1013.8 0.0
23/08:30pm 5.0 -1.1 5.0 100 0.0 NNW 26 39 14 21 1016.8 - 0.0
23/08:00pm 5.0 -1.1 5.0 100 0.0 NNW 26 39 14 21 1016.8 - 0.0
23/07:30pm 5.3 -1.1 5.3 100 0.0 NNW 28 43 15 23 1017.0 - 0.0
23/07:00pm 5.2 -1.6 5.2 100 0.0 NNW 30 43 16 23 1016.8 - 0.0
23/06:48pm 5.3 -1.1 5.3 100 0.0 NNW 28 46 15 25 1016.7 - 0.0
23/06:30pm 5.4 -0.6 5.4 100 0.0 NNW 26 37 14 20 1016.8 - 0.0
23/06:00pm 5.4 -1.0 5.4 100 0.0 NW 28 43 15 23 1016.8 1013.8 0.0
23/05:30pm 5.7 -0.6 5.7 100 0.0 NNW 28 39 15 21 1016.5 - 0.0
23/05:00pm 5.7 0.2 5.7 100 0.0 NNW 24 39 13 21 1016.4 - 0.0
23/04:38pm 5.6 -1.1 5.6 100 0.0 NNW 30 48 16 26 1016.5 - 0.0
23/04:30pm 5.8 -1.2 5.8 100 0.0 NNW 32 48 17 26 1016.3 - 0.0
23/04:00pm 5.8 -0.5 5.8 100 0.0 NNW 28 48 15 26 1016.4 - 0.0
23/03:59pm 5.8 -0.5 5.8 100 0.0 NNW 28 48 15 26 1016.4 - 0.0
23/03:30pm 6.1 0.6 6.1 100 0.0 NW 24 41 13 22 1016.5 - 0.0
23/03:11pm 6.1 -0.1 6.1 100 0.0 NNW 28 46 15 25 1016.4 - 0.0
23/03:00pm 6.0 0.5 6.0 100 0.0 NNW 24 43 13 23 1016.5 1013.5 0.0
23/02:48pm 5.9 -0.7 5.9 100 0.0 NNW 30 48 16 26 1016.4 - 0.0
23/02:30pm 6.1 -0.1 6.1 100 0.0 NNW 28 41 15 22 1016.8 - 0.0
23/02:08pm 6.1 -0.1 6.1 100 0.0 NNW 28 46 15 25 1016.4 - 0.0
23/02:00pm 6.1 -0.1 6.1 100 0.0 NNW 28 43 15 23 1016.5 - 0.0
23/01:30pm 6.0 -1.2 6.0 100 0.0 NNW 33 54 18 29 1016.5 - 0.0
23/01:24pm 6.0 -1.2 6.0 100 0.0 NNW 33 54 18 29 1016.5 - 0.0
23/01:00pm 6.0 -1.0 6.0 100 0.0 NNW 32 43 17 23 1016.8 - 0.0
23/12:30pm 6.0 -1.0 6.0 100 0.0 NNW 32 48 17 26 1017.3 - 0.0
23/12:22pm 5.9 -0.7 5.9 100 0.0 NNW 30 48 16 26 1017.3 - 0.0
23/12:00pm 5.8 -1.2 5.8 100 0.0 NNW 32 44 17 24 1017.6 1014.6 0.0
23/11:30am 5.7 -1.4 5.7 100 0.0 NNW 32 43 17 23 1017.7 - 0.0
23/11:22am 5.6 -1.5 5.6 100 0.0 NNW 32 50 17 27 1017.8 - 0.0
23/11:00am 5.5 -1.6 5.5 100 0.0 NNW 32 44 17 24 1017.8 - 0.0
23/10:30am 5.3 -2.0 5.3 100 0.0 NNW 33 48 18 26 1018.0 - 0.0
23/10:00am 5.2 -2.2 5.2 100 0.0 NNW 33 46 18 25 1018.1 - 0.0
23/09:30am 5.2 -2.2 5.2 100 0.0 NNW 33 43 18 23 1018.2 - 0.0
23/09:00am 5.2 -2.0 5.2 100 0.0 NNW 32 43 17 23 1018.4 1015.5 2.2
23/08:30am 5.3 -1.5 5.3 100 0.0 NNW 30 41 16 22 1018.4 - 2.2
23/08:00am 5.3 -1.1 5.3 100 0.0 NNW 28 35 15 19 1018.3 - 2.2
23/07:30am 5.2 -1.2 5.2 100 0.0 NNW 28 35 15 19 1018.1 - 2.2
23/07:00am 5.0 -1.4 5.0 100 0.0 NNW 28 35 15 19 1018.0 - 2.2
23/06:30am 4.8 -2.4 4.8 100 0.0 NNW 32 43 17 23 1017.7 - 2.2
23/06:00am 4.8 -2.4 4.8 100 0.0 NNW 32 41 17 22 1017.6 1014.6 2.2
23/05:30am 4.9 -2.3 4.9 100 0.0 NNW 32 46 17 25 1017.5 - 2.2
23/05:00am 4.8 -1.7 4.8 100 0.0 NNW 28 39 15 21 1017.6 - 2.2
23/04:30am 4.8 -2.4 4.8 100 0.0 NNW 32 43 17 23 1017.7 - 2.2
23/04:00am 4.9 -2.3 4.9 100 0.0 NNW 32 43 17 23 1017.6 - 2.2
23/03:30am 4.9 -2.5 4.9 100 0.0 NNW 33 44 18 24 1017.4 - 2.2
23/03:00am 5.0 -2.4 5.0 100 0.0 NNW 33 46 18 25 1017.7 1014.8 2.2
23/02:30am 5.1 -1.7 5.1 100 0.0 NNW 30 41 16 22 1017.8 - 2.2
23/02:00am 5.1 -2.3 5.1 100 0.0 NNW 33 41 18 22 1018.2 - 2.2
23/01:30am 5.3 -1.8 5.3 100 0.0 NNW 32 44 17 24 1018.6 - 2.2
23/01:00am 5.4 -1.3 5.4 100 0.0 NNW 30 39 16 21 1018.8 - 2.2
23/12:30am 5.2 -2.2 5.2 100 0.0 NNW 33 43 18 23 1018.8 - 2.2
23/12:00am 5.3 -2.4 5.3 100 0.0 NNW 35 48 19 26 1018.9 1016.0 2.2
 
Date/Time
EST
Temp
°C
App
Temp
°C
Dew
Point
Rel
Hum
%
Delta-T
°C
Wind Press
QNH
hPa
Press
MSL
hPa
Rain
since 9 am
mm
Dir
 
Spd
km/h
Gust
km/h
Spd
kts
Gust
kts
22/11:30pm 5.4 -1.9 5.4 100 0.0 NNW 33 43 18 23 1019.2 - 2.2
22/11:00pm 5.5 -1.8 5.5 100 0.0 NNW 33 46 18 25 1019.5 - 1.2
22/10:30pm 5.7 -1.4 5.7 100 0.0 NNW 32 43 17 23 1019.6 - 1.2
22/10:00pm 5.9 -0.4 5.9 100 0.0 NNW 28 39 15 21 1019.6 - 1.2
22/09:30pm 5.9 -0.4 5.9 100 0.0 NNW 28 39 15 21 1019.6 - 1.2
22/09:00pm 5.9 -0.4 5.9 100 0.0 NNW 28 37 15 20 1019.7 1016.9 1.2
22/08:30pm 5.8 1.2 5.8 100 0.0 NW 19 30 10 16 1020.0 - 0.8
22/08:00pm 5.8 0.7 5.8 100 0.0 NNW 22 35 12 19 1019.7 - 0.2
22/07:30pm 5.8 -0.5 5.8 100 0.0 NNW 28 37 15 20 1019.6 - 0.0
22/07:00pm 5.6 -0.7 5.6 100 0.0 NNW 28 35 15 19 1019.3 - 0.0
22/06:30pm 5.7 0.2 5.7 100 0.0 NNW 24 33 13 18 1019.5 - 0.0
22/06:00pm 5.7 -0.2 5.7 100 0.0 NNW 26 35 14 19 1018.9 1016.0 0.0
22/05:30pm 5.9 0.8 5.9 100 0.0 NNW 22 32 12 17 1018.7 - 0.0
22/05:00pm 6.0 0.5 5.9 99 0.0 NNW 24 33 13 18 1018.4 - 0.0
22/04:30pm 6.1 0.6 5.7 97 0.2 NNW 24 33 13 18 1018.3 - 0.0
22/04:00pm 6.6 1.0 5.2 91 0.7 NNW 24 33 13 18 1018.4 - 0.0
22/03:30pm 7.6 2.0 5.2 85 1.2 NNW 24 37 13 20 1018.2 - 0.0
22/03:00pm 6.8 1.2 5.4 91 0.7 N 24 33 13 18 1018.1 1015.1 0.0
22/02:30pm 6.8 0.9 5.7 93 0.5 NNW 26 39 14 21 1018.2 - 0.0
22/02:00pm 7.5 1.5 5.1 85 1.2 NNW 26 39 14 21 1018.7 - 0.0
22/01:30pm 6.5 0.0 4.7 88 0.9 NNW 28 43 15 23 1019.0 - 0.0
22/01:04pm 6.5 -0.5 4.2 85 1.1 NNW 30 48 16 26 1019.2 - 0.0
22/01:00pm 6.6 -0.9 4.3 85 1.1 NNW 33 48 18 26 1019.2 - 0.0
22/12:44pm 6.9 0.3 4.2 83 1.3 NNW 28 46 15 25 1019.3 - 0.0
22/12:30pm 5.8 -0.8 4.1 89 0.8 NNW 28 44 15 24 1019.4 - 0.0
22/12:00pm 5.2 -1.8 4.0 92 0.6 N 30 41 16 22 1019.7 1016.9 0.0
22/11:30am 5.2 -1.0 4.2 93 0.5 N 26 39 14 21 1019.9 - 0.0
22/11:00am 5.7 -1.0 3.7 87 0.9 N 28 43 15 23 1020.1 - 0.0
22/10:30am 5.4 -1.4 3.1 85 1.1 N 28 37 15 20 1020.0 - 0.0
22/10:00am 6.3 -0.5 3.3 81 1.4 N 28 41 15 22 1020.0 - 0.0
22/09:30am 5.0 -1.9 2.5 84 1.1 NNW 28 37 15 20 1020.3 - 0.0
22/09:00am 5.0 -1.5 2.5 84 1.1 NNW 26 37 14 20 1020.3 1017.5 0.0
22/08:30am 4.5 -3.2 2.2 85 1.0 NNW 32 39 17 21 1020.3 - 0.0
22/08:00am 3.6 -4.3 2.1 90 0.7 NNW 33 43 18 23 1020.0 - 0.0
22/07:30am 3.4 -4.5 2.4 93 0.4 NNW 33 44 18 24 1019.9 - 0.0
22/07:00am 3.2 -4.7 2.2 93 0.4 NNW 33 48 18 26 1019.6 - 0.0
22/06:30am 3.3 -4.6 2.0 91 0.6 NNW 33 41 18 22 1019.5 - 0.0
22/06:00am 3.6 -4.2 1.5 86 0.9 NNW 32 39 17 21 1019.4 1016.5 0.0
22/05:30am 3.9 -4.1 0.4 78 1.5 NNW 32 37 17 20 1019.5 - 0.0
22/05:00am 4.2 -3.2 -0.8 70 2.1 NNW 28 35 15 19 1019.7 - 0.0
22/04:30am 4.7 -3.2 -1.7 63 2.6 NNW 30 37 16 20 1019.5 - 0.0
22/04:00am 5.0 -1.9 -2.6 58 3.1 NNW 24 35 13 19 1019.7 - 0.0
22/03:30am 5.5 -1.8 -2.8 55 3.3 NNW 26 33 14 18 1019.7 - 0.0
22/03:00am 5.6 -1.8 -3.5 52 3.6 NNW 26 33 14 18 1020.0 1017.1 0.0
22/02:30am 6.1 -1.3 -3.5 50 3.8 NNW 26 33 14 18 1020.3 - 0.0
22/02:00am 6.1 -0.9 -3.8 49 3.9 NNW 24 28 13 15 1020.7 - 0.0
22/01:30am 6.4 -1.1 -4.1 47 4.1 NNW 26 32 14 17 1020.8 - 0.0
22/01:00am 6.2 -0.8 -3.4 50 3.8 NNW 24 32 13 17 1021.1 - 0.0
22/12:30am 5.9 -0.3 -3.2 52 3.6 NNW 20 26 11 14 1021.3 - 0.0
22/12:00am 5.8 -0.4 -3.0 53 3.5 NNW 20 26 11 14 1021.5 1018.7 0.0
 
Date/Time
EST
Temp
°C
App
Temp
°C
Dew
Point
Rel
Hum
%
Delta-T
°C
Wind Press
QNH
hPa
Press
MSL
hPa
Rain
since 9 am
mm
Dir
 
Spd
km/h
Gust
km/h
Spd
kts
Gust
kts
21/11:30pm 6.0 0.1 -2.6 54 3.5 NNW 19 22 10 12 1021.5 - 0.0
21/11:00pm 6.0 0.1 -1.9 57 3.3 NNW 19 22 10 12 1021.8 - 0.0
21/10:30pm 6.1 0.7 -1.3 59 3.1 NNW 17 22 9 12 1022.0 - 0.0
21/10:00pm 6.4 0.6 -1.2 58 3.2 NNW 19 22 10 12 1022.1 - 0.0
21/09:30pm 6.3 0.5 -1.3 58 3.2 NNW 19 22 10 12 1022.1 - 0.0
21/09:00pm 6.6 0.6 -1.3 57 3.3 NNW 20 24 11 13 1022.2 1019.5 0.0
21/08:30pm 6.5 0.7 -1.2 58 3.3 NNW 19 24 10 13 1022.2 - 0.0
21/08:00pm 6.2 -0.1 -1.0 60 3.0 NW 22 26 12 14 1022.1 - 0.0
21/07:30pm 4.7 -1.6 -3.6 55 3.2 NW 20 22 11 12 1022.0 - 0.0
21/07:00pm 4.6 -1.6 -2.9 58 3.0 NW 20 22 11 12 1022.0 - 0.0
21/06:30pm 4.6 -1.4 -3.4 56 3.1 NW 19 22 10 12 1021.9 - 0.0
21/06:00pm 4.8 -1.3 -3.5 55 3.2 NW 19 20 10 11 1021.7 1018.8 0.0
21/05:30pm 4.9 -1.1 -3.1 56 3.2 NW 19 20 10 11 1021.2 - 0.0
21/05:00pm 5.6 -0.3 -2.5 56 3.3 NW 19 22 10 12 1021.1 - 0.0
21/04:30pm 5.9 -0.2 -2.2 56 3.3 NW 20 26 11 14 1020.8 - 0.0
21/04:00pm 6.5 0.4 -2.4 53 3.7 NW 20 28 11 15 1020.7 - 0.0
21/03:30pm 7.6 1.8 -1.4 53 3.8 NW 19 22 10 12 1020.6 - 0.0
21/03:00pm 8.5 3.1 -1.0 51 4.1 NW 17 24 9 13 1020.6 1017.7 0.0
21/02:30pm 7.8 3.0 0.5 60 3.3 NNW 15 20 8 11 1020.6 - 0.0
21/02:00pm 6.6 1.4 0.1 63 2.8 NNW 17 24 9 13 1020.7 - 0.0
21/01:30pm 6.4 1.2 0.3 65 2.7 NNW 17 26 9 14 1020.8 - 0.0
21/01:00pm 7.1 1.9 0.3 62 3.0 NNW 17 28 9 15 1020.8 - 0.0
21/12:30pm 7.1 1.2 -0.8 57 3.4 NW 20 28 11 15 1021.2 - 0.0
21/12:00pm 7.8 2.1 -0.7 55 3.7 NNW 19 26 10 14 1021.2 1018.3 0.0
21/11:30am 7.1 1.5 0.1 61 3.1 NNW 19 24 10 13 1021.4 - 0.0
21/11:00am 7.5 2.6 -0.5 57 3.5 N 15 26 8 14 1021.7 - 0.0
21/10:30am 6.3 1.4 -0.2 63 2.8 N 15 22 8 12 1021.8 - 0.0
21/10:00am 6.5 1.9 -0.9 59 3.2 NNW 13 17 7 9 1022.0 - 0.0
21/09:30am 5.5 1.8 0.1 68 2.3 N 9 11 5 6 1022.0 - 0.0
21/09:00am 4.6 0.9 -0.2 71 2.0 N 9 11 5 6 1022.1 1019.3 0.0
21/08:30am 5.4 2.1 0.4 70 2.2 N 7 11 4 6 1022.2 - 0.0
21/08:00am 4.0 1.6 -0.6 72 1.9 S 2 6 1 3 1022.0 - 0.0
21/07:30am 3.3 0.1 -0.5 76 1.6 SSE 6 7 3 4 1021.4 - 0.0
21/07:00am 2.9 -0.5 -0.5 78 1.4 SSE 7 9 4 5 1021.1 - 0.0
21/06:30am 2.7 -1.1 -0.7 78 1.4 SSW 9 11 5 6 1021.1 - 0.0
21/06:00am 3.0 -0.9 -1.4 73 1.8 S 9 11 5 6 1020.7 1017.8 0.0
21/05:30am 3.1 -0.8 -1.8 70 2.0 S 9 11 5 6 1020.5 - 0.0
21/05:00am 3.4 -0.6 -1.9 68 2.1 SSW 9 11 5 6 1020.3 - 0.0
21/04:30am 2.5 -2.1 -1.3 76 1.5 S 13 15 7 8 1020.0 - 0.0
21/04:00am 1.9 -3.1 -1.0 81 1.2 S 15 17 8 9 1019.7 - 0.0

Other Formats:

Comma delimited format used in spreadsheet applications
http://www.bom.gov.au/fwo/IDV60801/IDV60801.94903.axf

JavaScript Object Notation format (JSON) in row-major order
http://www.bom.gov.au/fwo/IDV60801/IDV60801.94903.json